Time;durP1;ratioP1;P1;durP2;ratioP2;P2;SDS_P1;SDS_P2;PMS_P1;PMS_P2;Temp;Humidity;BMP_temperature;BMP_pressure;BME280_temperature;BME280_humidity;BME280_pressure;Samples;Min_cycle;Max_cycle;Signal;HPM_P1;HPM_P2
2022/04/13 00:02:01;;;;;;;7.20;2.55;;;16.70;62.50;;;;;;5053239;28;20036;-59
2022/04/13 00:04:26;;;;;;;5.00;2.70;;;16.70;62.50;;;;;;5056536;28;20033;-59
2022/04/13 00:06:52;;;;;;;5.15;2.50;;;16.70;62.70;;;;;;5052498;28;20165;-59
2022/04/13 00:09:18;;;;;;;5.55;3.00;;;16.70;62.80;;;;;;5051930;28;20171;-59
2022/04/13 00:11:44;;;;;;;3.78;2.03;;;16.60;62.60;;;;;;5050822;28;20040;-59
2022/04/13 00:14:09;;;;;;;4.93;2.65;;;16.60;62.90;;;;;;5053134;28;20423;-59
2022/04/13 00:16:35;;;;;;;7.10;2.40;;;16.60;63.20;;;;;;5045241;28;20125;-60
2022/04/13 00:19:01;;;;;;;5.55;2.42;;;16.60;63.40;;;;;;5047788;28;20013;-60
2022/04/13 00:21:26;;;;;;;3.72;2.60;;;16.60;63.50;;;;;;5048012;28;20021;-59
2022/04/13 00:23:52;;;;;;;5.50;2.70;;;16.50;63.60;;;;;;5032450;28;20210;-59
2022/04/13 00:26:18;;;;;;;5.47;3.03;;;16.50;63.60;;;;;;5030450;28;20037;-59
2022/04/13 00:28:43;;;;;;;6.13;2.95;;;16.40;63.70;;;;;;5048307;28;20032;-60
2022/04/13 00:31:09;;;;;;;5.78;2.67;;;16.40;63.70;;;;;;5046727;28;20679;-61
2022/04/13 00:33:35;;;;;;;3.85;2.25;;;16.30;63.80;;;;;;5038289;28;20497;-59
2022/04/13 00:36:01;;;;;;;6.78;2.60;;;16.30;63.90;;;;;;5045209;28;20020;-60
2022/04/13 00:38:26;;;;;;;5.85;2.45;;;16.30;64.00;;;;;;5047721;28;20044;-60
2022/04/13 00:40:52;;;;;;;5.57;2.42;;;16.30;64.10;;;;;;5026025;28;20547;-60
2022/04/13 00:43:17;;;;;;;3.83;2.30;;;16.20;64.20;;;;;;5036066;28;20029;-60
2022/04/13 00:45:47;;;;;;;6.38;3.08;;;16.20;64.40;;;;;;5030673;28;20111;-59
2022/04/13 00:48:30;;;;;;;4.45;2.30;;;16.10;64.40;;;;;;5047144;28;20067;-59
2022/04/13 00:50:56;;;;;;;5.32;2.58;;;16.10;64.60;;;;;;5045927;28;20021;-59
2022/04/13 00:53:24;;;;;;;5.22;2.80;;;16.10;64.80;;;;;;5049026;28;20023;-61
2022/04/13 00:55:53;;;;;;;5.75;2.38;;;16.10;65.00;;;;;;5049949;28;20399;-60
2022/04/13 00:58:22;;;;;;;5.53;2.88;;;16.00;65.20;;;;;;5051747;28;20018;-60
2022/04/13 01:00:49;;;;;;;5.47;2.55;;;16.00;65.30;;;;;;5050807;28;20045;-61
2022/04/13 01:03:20;;;;;;;7.60;2.30;;;16.00;65.40;;;;;;5050667;28;20021;-61
2022/04/13 01:05:47;;;;;;;4.82;2.50;;;16.00;65.50;;;;;;5052012;28;20170;-58
2022/04/13 01:08:14;;;;;;;4.35;2.33;;;16.00;65.50;;;;;;5045911;28;20022;-60
2022/04/13 01:10:43;;;;;;;5.60;2.42;;;16.00;65.50;;;;;;5051172;28;20033;-58
2022/04/13 01:13:10;;;;;;;3.20;2.13;;;15.90;65.50;;;;;;5045183;28;20086;-59
2022/04/13 01:15:36;;;;;;;5.25;2.63;;;15.90;65.60;;;;;;5045425;28;20033;-60
2022/04/13 01:18:03;;;;;;;4.53;2.20;;;15.90;65.70;;;;;;5045871;28;20071;-59
2022/04/13 01:20:28;;;;;;;4.93;2.25;;;15.80;65.70;;;;;;5045588;28;20098;-59
2022/04/13 01:22:55;;;;;;;5.38;2.22;;;15.80;65.80;;;;;;5050564;28;20071;-59
2022/04/13 01:25:20;;;;;;;6.03;2.67;;;15.70;65.80;;;;;;5034368;28;20132;-60
2022/04/13 01:27:46;;;;;;;3.45;2.38;;;15.70;65.80;;;;;;5050778;28;20526;-60
2022/04/13 01:30:13;;;;;;;4.47;2.22;;;15.70;65.90;;;;;;5033921;28;20095;-61
2022/04/13 01:32:39;;;;;;;5.38;2.45;;;15.60;65.90;;;;;;5049911;28;20545;-60
2022/04/13 01:35:06;;;;;;;5.85;2.60;;;15.60;65.80;;;;;;5050780;28;20037;-59
2022/04/13 01:37:32;;;;;;;4.00;2.13;;;15.60;65.70;;;;;;5051082;28;20036;-60
2022/04/13 01:39:58;;;;;;;6.13;2.72;;;15.50;65.60;;;;;;5050152;28;20023;-59
2022/04/13 01:42:24;;;;;;;4.85;2.30;;;15.50;65.70;;;;;;5048049;28;20036;-60
2022/04/13 01:44:50;;;;;;;8.32;2.95;;;15.40;65.60;;;;;;5048583;28;20037;-60
2022/04/13 01:47:16;;;;;;;6.45;2.42;;;15.40;65.70;;;;;;5049743;28;20079;-59
2022/04/13 01:49:42;;;;;;;5.53;2.47;;;15.40;65.80;;;;;;5051083;28;20057;-60
2022/04/13 01:52:10;;;;;;;8.32;2.90;;;15.30;65.80;;;;;;5048634;28;20591;-60
2022/04/13 01:54:36;;;;;;;7.93;2.50;;;15.30;65.80;;;;;;5050395;28;20028;-60
2022/04/13 01:57:03;;;;;;;6.22;2.83;;;15.30;65.90;;;;;;5050488;28;20482;-59
2022/04/13 01:59:29;;;;;;;6.80;2.85;;;15.20;65.70;;;;;;5048511;28;20125;-60
2022/04/13 02:01:55;;;;;;;6.07;2.38;;;15.20;65.80;;;;;;5047288;28;20079;-59
2022/04/13 02:04:25;;;;;;;5.00;2.60;;;15.20;65.80;;;;;;5050359;28;20063;-59
2022/04/13 02:06:51;;;;;;;9.85;2.58;;;15.10;65.80;;;;;;5050033;28;20037;-59
2022/04/13 02:09:18;;;;;;;4.05;2.42;;;15.10;65.80;;;;;;5050249;28;20377;-59
2022/04/13 02:11:45;;;;;;;7.55;2.83;;;15.10;66.00;;;;;;5046854;28;20551;-59
2022/04/13 02:14:10;;;;;;;6.53;2.65;;;15.00;66.10;;;;;;5044046;28;20498;-59
2022/04/13 02:16:36;;;;;;;6.82;2.70;;;15.00;66.20;;;;;;5049130;28;20036;-60
2022/04/13 02:19:03;;;;;;;4.70;2.50;;;14.90;66.10;;;;;;5050077;28;20586;-59
2022/04/13 02:21:30;;;;;;;8.45;2.88;;;14.90;66.20;;;;;;5032292;28;20017;-59
2022/04/13 02:23:56;;;;;;;6.65;2.92;;;14.90;66.30;;;;;;5050229;28;20037;-59
2022/04/13 02:26:23;;;;;;;5.60;2.90;;;14.90;66.40;;;;;;5032019;28;20028;-59
2022/04/13 02:28:50;;;;;;;6.18;2.90;;;14.90;66.40;;;;;;5050432;28;20052;-59
2022/04/13 02:31:15;;;;;;;5.93;2.90;;;14.80;66.60;;;;;;5031962;28;20508;-59
2022/04/13 02:33:41;;;;;;;6.10;2.90;;;14.80;66.70;;;;;;5046263;28;20060;-59
2022/04/13 02:36:07;;;;;;;7.47;3.00;;;14.70;66.80;;;;;;5049837;28;20085;-60
2022/04/13 02:38:33;;;;;;;7.40;3.33;;;14.70;66.80;;;;;;5049923;28;20112;-60
2022/04/13 02:40:59;;;;;;;9.98;3.17;;;14.70;66.90;;;;;;5048991;28;20481;-60
2022/04/13 02:43:27;;;;;;;9.40;3.15;;;14.70;67.10;;;;;;5049650;28;20021;-60
2022/04/13 02:45:53;;;;;;;4.35;2.80;;;14.70;67.20;;;;;;5049496;28;20033;-59
2022/04/13 02:48:20;;;;;;;7.10;3.00;;;14.70;67.40;;;;;;5049570;28;20037;-60
2022/04/13 02:50:46;;;;;;;11.10;3.50;;;14.60;67.40;;;;;;5031096;28;20040;-60
2022/04/13 02:53:11;;;;;;;8.63;3.33;;;14.60;67.50;;;;;;5032121;28;20037;-59
2022/04/13 02:55:37;;;;;;;7.13;3.13;;;14.60;67.70;;;;;;5049510;28;20043;-59
2022/04/13 02:58:03;;;;;;;6.28;2.92;;;14.60;67.80;;;;;;5049275;28;20040;-59
2022/04/13 03:00:29;;;;;;;6.93;3.38;;;14.60;67.90;;;;;;5049166;28;20059;-59
2022/04/13 03:02:55;;;;;;;6.95;3.60;;;14.60;68.10;;;;;;5049033;28;20021;-60
2022/04/13 03:05:21;;;;;;;7.07;3.97;;;14.50;68.20;;;;;;5048911;28;20032;-58
2022/04/13 03:07:46;;;;;;;7.38;3.30;;;14.50;68.40;;;;;;5054166;28;20564;-59
2022/04/13 03:10:12;;;;;;;7.28;3.25;;;14.50;68.50;;;;;;5050217;28;20410;-59
2022/04/13 03:12:38;;;;;;;6.03;3.38;;;14.50;68.70;;;;;;5055872;28;20040;-59
2022/04/13 03:15:07;;;;;;;7.95;3.10;;;14.50;68.60;;;;;;5031032;28;20082;-60
2022/04/13 03:17:33;;;;;;;7.68;3.25;;;14.50;68.80;;;;;;5055095;28;20475;-60
2022/04/13 03:19:59;;;;;;;6.35;3.72;;;14.50;68.80;;;;;;5036908;28;20354;-59
2022/04/13 03:22:25;;;;;;;8.73;3.85;;;14.50;69.00;;;;;;5055099;28;20043;-60
2022/04/13 03:24:53;;;;;;;5.05;3.47;;;14.50;69.20;;;;;;5054276;28;20704;-60
2022/04/13 03:27:19;;;;;;;5.82;3.67;;;14.50;69.30;;;;;;5055317;28;20040;-60
2022/04/13 03:29:45;;;;;;;6.30;3.50;;;14.50;69.30;;;;;;5054358;28;20037;-60
2022/04/13 03:32:11;;;;;;;6.00;3.55;;;14.40;69.40;;;;;;5054734;28;20049;-59
2022/04/13 03:34:37;;;;;;;7.70;4.10;;;14.40;70.00;;;;;;5053881;28;20112;-60
2022/04/13 03:37:03;;;;;;;5.50;3.67;;;14.40;69.60;;;;;;5053629;28;20072;-59
2022/04/13 03:39:29;;;;;;;5.60;3.70;;;14.40;69.60;;;;;;5037761;28;20029;-58
2022/04/13 03:41:55;;;;;;;6.15;3.67;;;14.40;69.80;;;;;;5045431;28;20032;-59
2022/04/13 03:44:21;;;;;;;7.00;4.10;;;14.40;69.90;;;;;;5056355;28;20024;-60
2022/04/13 03:46:47;;;;;;;7.00;4.03;;;14.40;70.00;;;;;;5068712;28;20087;-60
2022/04/13 03:49:13;;;;;;;9.20;4.28;;;14.40;70.00;;;;;;5062374;28;20435;-59
2022/04/13 03:51:39;;;;;;;5.68;4.18;;;14.30;70.00;;;;;;5055465;28;20028;-59
2022/04/13 03:54:04;;;;;;;8.25;4.00;;;14.30;70.10;;;;;;5025857;28;20415;-60
2022/04/13 03:56:30;;;;;;;5.72;3.85;;;14.30;70.20;;;;;;5029298;28;20037;-60
2022/04/13 03:59:02;;;;;;;7.88;4.25;;;14.30;70.20;;;;;;5036374;28;20040;-61
2022/04/13 04:01:28;;;;;;;7.13;3.63;;;14.30;70.30;;;;;;5034028;28;20442;-59
2022/04/13 04:03:54;;;;;;;7.32;4.07;;;14.30;70.20;;;;;;5068745;28;20037;-60
2022/04/13 04:06:20;;;;;;;6.65;4.15;;;14.20;70.20;;;;;;5063548;28;20048;-60
2022/04/13 04:08:46;;;;;;;6.93;4.18;;;14.20;70.30;;;;;;5045406;28;20028;-60
2022/04/13 04:11:12;;;;;;;6.63;4.65;;;14.20;70.30;;;;;;5044971;28;20358;-60
2022/04/13 04:13:38;;;;;;;6.22;4.25;;;14.10;70.30;;;;;;5045684;28;20021;-58
2022/04/13 04:16:04;;;;;;;7.07;4.32;;;14.10;70.20;;;;;;5027032;28;20025;-59
2022/04/13 04:18:30;;;;;;;7.65;4.30;;;14.00;70.10;;;;;;5012604;28;20033;-58
2022/04/13 04:20:56;;;;;;;6.80;4.88;;;14.00;70.20;;;;;;5037378;28;20032;-60
2022/04/13 04:23:21;;;;;;;7.30;4.68;;;14.00;70.30;;;;;;5047376;28;20480;-60
2022/04/13 04:25:47;;;;;;;9.13;4.93;;;14.00;70.40;;;;;;5047434;28;20044;-59
2022/04/13 04:28:13;;;;;;;6.68;4.35;;;13.90;70.30;;;;;;5036057;28;20037;-58
2022/04/13 04:30:39;;;;;;;8.50;4.75;;;13.80;70.20;;;;;;5011951;28;20044;-58
2022/04/13 04:33:06;;;;;;;7.93;4.40;;;13.80;70.30;;;;;;5046788;28;20049;-59
2022/04/13 04:35:33;;;;;;;8.60;4.93;;;13.80;70.30;;;;;;5046916;28;20028;-58
2022/04/13 04:37:59;;;;;;;7.55;4.82;;;13.70;70.40;;;;;;5046815;28;20143;-58
2022/04/13 04:40:26;;;;;;;6.88;5.32;;;13.70;70.40;;;;;;5013292;28;20082;-61
2022/04/13 04:42:51;;;;;;;8.35;4.90;;;13.70;70.50;;;;;;5047095;28;20175;-60
2022/04/13 04:45:19;;;;;;;7.43;4.93;;;13.60;70.60;;;;;;5046149;28;20115;-59
2022/04/13 04:47:49;;;;;;;8.13;5.15;;;13.60;70.70;;;;;;5035518;28;20499;-58
2022/04/13 04:50:15;;;;;;;12.45;5.53;;;13.60;70.80;;;;;;5046402;28;20040;-58
2022/04/13 04:52:43;;;;;;;9.80;4.95;;;13.50;70.80;;;;;;5045328;28;20103;-58
2022/04/13 04:55:10;;;;;;;10.50;5.45;;;13.50;70.80;;;;;;5038469;28;20102;-58
2022/04/13 04:57:36;;;;;;;9.05;5.80;;;13.50;71.00;;;;;;5046787;28;20029;-60
2022/04/13 05:00:07;;;;;;;9.00;5.50;;;13.40;71.00;;;;;;5047056;28;20036;-60
2022/04/13 05:02:33;;;;;;;9.73;5.55;;;13.40;71.20;;;;;;5047164;28;20048;-60
2022/04/13 05:04:58;;;;;;;10.10;5.63;;;13.40;71.20;;;;;;5045237;28;20041;-60
2022/04/13 05:07:24;;;;;;;10.60;6.35;;;13.40;71.30;;;;;;5047411;28;20040;-58
2022/04/13 05:09:50;;;;;;;10.38;6.07;;;13.40;71.40;;;;;;5047409;28;20100;-58
2022/04/13 05:12:16;;;;;;;9.95;6.00;;;13.40;71.50;;;;;;5047207;28;20551;-59
2022/04/13 05:14:41;;;;;;;9.75;6.47;;;13.40;71.60;;;;;;5048402;28;20379;-59
2022/04/13 05:17:07;;;;;;;9.63;5.97;;;13.30;71.80;;;;;;5045078;28;20165;-59
2022/04/13 05:19:34;;;;;;;8.10;6.15;;;13.30;71.80;;;;;;5047330;28;20110;-59
2022/04/13 05:21:59;;;;;;;9.63;6.60;;;13.30;71.90;;;;;;5046485;28;20052;-60
2022/04/13 05:24:25;;;;;;;11.35;6.50;;;13.30;72.00;;;;;;5029977;28;20425;-60
2022/04/13 05:26:51;;;;;;;7.68;6.32;;;13.30;72.10;;;;;;5047498;28;20044;-60
2022/04/13 05:29:17;;;;;;;10.38;6.50;;;13.30;72.20;;;;;;5047269;28;20022;-60
2022/04/13 05:31:42;;;;;;;12.13;6.03;;;13.30;72.30;;;;;;5047207;28;20045;-60
2022/04/13 05:34:08;;;;;;;8.52;6.00;;;13.30;72.30;;;;;;5023319;28;20107;-60
2022/04/13 05:36:34;;;;;;;10.85;6.50;;;13.30;72.40;;;;;;5047426;28;20029;-60
2022/04/13 05:39:00;;;;;;;9.90;7.10;;;13.30;72.60;;;;;;5030302;28;20026;-60
2022/04/13 05:41:26;;;;;;;10.20;6.50;;;13.30;72.70;;;;;;5034835;28;20051;-59
2022/04/13 05:43:51;;;;;;;10.43;6.75;;;13.40;73.00;;;;;;5051219;28;20033;-60
2022/04/13 05:46:17;;;;;;;11.68;7.05;;;13.40;73.20;;;;;;5050356;28;20036;-60
2022/04/13 05:48:42;;;;;;;12.15;7.45;;;13.40;73.40;;;;;;5050921;28;20043;-60
2022/04/13 05:51:09;;;;;;;8.45;7.13;;;13.50;73.60;;;;;;5050214;28;20029;-60
2022/04/13 05:53:35;;;;;;;10.50;7.15;;;13.50;73.80;;;;;;5042918;28;20029;-60
2022/04/13 05:56:02;;;;;;;9.23;7.07;;;13.50;74.00;;;;;;5048376;28;20040;-60
2022/04/13 05:58:28;;;;;;;11.98;6.95;;;13.60;74.20;;;;;;5051142;28;20052;-60
2022/04/13 06:00:55;;;;;;;11.05;7.50;;;13.60;74.40;;;;;;5049963;28;20061;-60
2022/04/13 06:03:22;;;;;;;11.15;7.45;;;13.70;74.70;;;;;;5041976;28;20029;-60
2022/04/13 06:05:49;;;;;;;9.25;7.25;;;13.70;74.80;;;;;;5032546;28;20086;-58
2022/04/13 06:08:15;;;;;;;13.50;7.95;;;13.70;74.80;;;;;;5050471;28;20043;-59
2022/04/13 06:10:41;;;;;;;10.68;7.68;;;13.80;74.80;;;;;;5050396;28;20025;-59
2022/04/13 06:13:06;;;;;;;14.50;7.75;;;13.80;74.80;;;;;;5046908;28;20045;-59
2022/04/13 06:15:32;;;;;;;13.57;8.30;;;13.90;74.80;;;;;;5031680;28;20029;-59
2022/04/13 06:17:59;;;;;;;13.30;8.52;;;13.90;74.70;;;;;;5048671;28;20388;-60
2022/04/13 06:20:24;;;;;;;12.90;8.30;;;14.00;74.70;;;;;;5049038;28;20029;-60
2022/04/13 06:22:52;;;;;;;12.85;8.45;;;14.00;74.80;;;;;;5047970;28;20037;-60
2022/04/13 06:25:18;;;;;;;10.95;8.88;;;14.10;74.70;;;;;;5055899;28;20033;-60
2022/04/13 06:27:45;;;;;;;13.77;9.93;;;14.10;74.60;;;;;;5049972;28;20039;-60
2022/04/13 06:30:12;;;;;;;14.20;9.30;;;14.10;74.40;;;;;;5026902;28;20064;-60
2022/04/13 06:32:47;;;;;;;14.63;10.15;;;14.20;74.60;;;;;;5033182;28;20143;-60
2022/04/13 06:35:14;;;;;;;14.45;9.40;;;14.20;74.60;;;;;;5050690;28;20071;-60
2022/04/13 06:37:41;;;;;;;11.98;10.05;;;14.20;74.50;;;;;;5032710;28;20373;-59
2022/04/13 06:40:08;;;;;;;16.52;10.77;;;14.30;74.60;;;;;;5031566;28;20053;-60
2022/04/13 06:42:36;;;;;;;15.73;10.52;;;14.30;74.80;;;;;;5030505;28;20045;-59
2022/04/13 06:45:03;;;;;;;16.20;11.13;;;14.40;74.60;;;;;;5047352;28;20033;-60
2022/04/13 06:47:29;;;;;;;16.88;10.65;;;14.40;74.80;;;;;;5048118;28;20029;-60
2022/04/13 06:49:55;;;;;;;15.38;10.18;;;14.50;74.80;;;;;;5047059;28;20537;-59
2022/04/13 06:52:21;;;;;;;15.70;11.20;;;14.50;74.80;;;;;;5049721;28;20032;-60
2022/04/13 06:54:47;;;;;;;15.93;11.65;;;14.60;74.80;;;;;;5049319;28;20029;-59
2022/04/13 06:57:12;;;;;;;15.48;10.35;;;14.60;74.80;;;;;;5032071;28;20028;-60
2022/04/13 06:59:38;;;;;;;18.42;12.35;;;14.60;74.70;;;;;;5049288;28;20029;-60
2022/04/13 07:02:10;;;;;;;14.68;10.75;;;14.70;74.90;;;;;;5031265;28;20441;-59
2022/04/13 07:04:39;;;;;;;16.52;11.10;;;14.70;74.90;;;;;;5048942;28;20033;-58
2022/04/13 07:07:05;;;;;;;14.30;10.02;;;14.80;74.80;;;;;;5046144;28;20388;-59
2022/04/13 07:09:31;;;;;;;15.85;10.57;;;14.80;74.70;;;;;;5036905;28;20021;-58
2022/04/13 07:11:57;;;;;;;17.83;11.70;;;14.90;74.70;;;;;;5040156;28;20489;-59
2022/04/13 07:14:22;;;;;;;15.30;10.90;;;15.00;74.80;;;;;;5046230;28;20055;-59
2022/04/13 07:16:48;;;;;;;16.92;11.43;;;15.00;74.80;;;;;;5031302;28;20104;-60
2022/04/13 07:19:14;;;;;;;15.70;10.45;;;15.10;74.90;;;;;;5049667;28;20102;-60
2022/04/13 07:21:39;;;;;;;15.63;11.80;;;15.10;75.00;;;;;;5030500;28;20048;-61
2022/04/13 07:24:05;;;;;;;15.23;10.05;;;15.20;75.00;;;;;;5049278;28;20392;-60
2022/04/13 07:26:32;;;;;;;11.30;8.70;;;15.20;74.80;;;;;;5048832;28;20231;-60
2022/04/13 07:28:58;;;;;;;14.15;8.60;;;15.20;74.70;;;;;;5043804;28;20047;-59
2022/04/13 07:31:23;;;;;;;12.30;8.43;;;15.30;74.60;;;;;;5047849;28;20495;-60
2022/04/13 07:33:50;;;;;;;11.38;7.32;;;15.30;74.40;;;;;;5047021;28;20049;-60
2022/04/13 07:36:16;;;;;;;11.98;8.00;;;15.30;74.30;;;;;;5048383;28;20028;-61
2022/04/13 07:38:41;;;;;;;11.90;8.50;;;15.30;74.20;;;;;;5048224;28;20025;-61
2022/04/13 07:41:07;;;;;;;12.90;9.13;;;15.30;74.20;;;;;;5047566;28;20124;-61
2022/04/13 07:43:32;;;;;;;13.75;8.32;;;15.40;74.30;;;;;;5048619;28;20033;-60
2022/04/13 07:45:58;;;;;;;13.00;8.95;;;15.40;74.10;;;;;;5048430;28;20033;-60
2022/04/13 07:48:24;;;;;;;16.65;10.40;;;15.50;74.10;;;;;;5048200;28;20021;-60
2022/04/13 07:50:49;;;;;;;14.27;9.82;;;15.50;73.80;;;;;;5045752;28;20025;-62
2022/04/13 07:53:15;;;;;;;19.42;10.52;;;15.60;73.90;;;;;;5041484;28;20033;-61
2022/04/13 07:55:41;;;;;;;13.63;9.93;;;15.50;73.80;;;;;;5020949;28;20030;-61
2022/04/13 07:58:07;;;;;;;12.93;9.88;;;15.50;73.70;;;;;;5047521;28;20127;-61
2022/04/13 08:00:33;;;;;;;14.13;8.70;;;15.50;73.80;;;;;;5015847;28;20326;-61
2022/04/13 08:02:59;;;;;;;12.90;9.10;;;15.50;73.70;;;;;;5041984;28;20170;-61
2022/04/13 08:05:25;;;;;;;17.00;9.45;;;15.50;73.50;;;;;;5038588;28;20029;-61
2022/04/13 08:07:51;;;;;;;13.88;8.88;;;15.50;73.50;;;;;;5044306;28;20059;-60
2022/04/13 08:10:17;;;;;;;11.13;7.55;;;15.50;73.40;;;;;;5034696;28;20036;-61
2022/04/13 08:12:46;;;;;;;14.80;9.05;;;15.50;73.40;;;;;;5011157;28;20040;-61
2022/04/13 08:15:13;;;;;;;13.20;8.77;;;15.50;73.40;;;;;;5042069;28;20112;-61
2022/04/13 08:17:40;;;;;;;11.52;8.57;;;15.60;73.10;;;;;;5014255;28;20067;-61
2022/04/13 08:20:08;;;;;;;13.52;8.40;;;15.60;72.90;;;;;;5032451;28;20029;-60
2022/04/13 08:22:33;;;;;;;12.43;8.15;;;15.60;72.70;;;;;;5038166;28;20763;-60
2022/04/13 08:24:59;;;;;;;12.05;6.90;;;15.60;72.60;;;;;;5023726;28;20139;-60
2022/04/13 08:27:25;;;;;;;12.63;8.27;;;15.70;72.70;;;;;;5020672;28;20095;-60
2022/04/13 08:29:50;;;;;;;17.60;11.10;;;15.70;72.70;;;;;;5044245;28;20479;-60
2022/04/13 08:32:17;;;;;;;13.80;10.80;;;15.80;72.90;;;;;;5038960;28;20064;-60
2022/04/13 08:34:44;;;;;;;16.63;12.70;;;15.80;72.90;;;;;;5044301;28;20032;-60
2022/04/13 08:37:10;;;;;;;17.25;13.13;;;15.90;73.00;;;;;;5023134;28;20025;-60
2022/04/13 08:39:36;;;;;;;22.25;13.95;;;15.90;73.00;;;;;;5046015;28;20029;-60
2022/04/13 08:42:39;;;;;;;16.42;11.38;;;15.90;73.00;;;;;;5030152;28;20044;-60
2022/04/13 08:45:15;;;;;;;16.52;11.27;;;16.00;73.10;;;;;;5048981;28;20499;-60
2022/04/13 08:47:43;;;;;;;18.70;11.98;;;16.10;73.30;;;;;;5041196;28;20079;-60
2022/04/13 08:50:11;;;;;;;17.95;12.32;;;16.20;73.00;;;;;;5040772;28;20052;-61
2022/04/13 08:52:38;;;;;;;16.88;11.73;;;16.30;72.70;;;;;;5049052;28;20070;-61
2022/04/13 08:55:16;;;;;;;19.17;11.77;;;16.30;72.40;;;;;;5031888;28;20092;-61
2022/04/13 08:57:49;;;;;;;14.25;10.50;;;16.40;72.60;;;;;;5036531;28;20059;-61
2022/04/13 09:00:16;;;;;;;17.77;11.05;;;16.50;71.70;;;;;;5048010;28;20029;-61
2022/04/13 09:02:50;;;;;;;13.57;10.07;;;16.50;71.00;;;;;;5035345;28;20049;-61
2022/04/13 09:05:29;;;;;;;12.80;9.38;;;16.60;70.80;;;;;;5061509;28;20042;-60
2022/04/13 09:08:25;;;;;;;14.80;9.27;;;16.60;71.00;;;;;;5062319;28;20074;-61
2022/04/13 09:10:53;;;;;;;16.13;12.30;;;16.80;70.80;;;;;;5014761;28;20179;-61
2022/04/13 09:13:21;;;;;;;15.35;9.88;;;16.90;70.30;;;;;;5035935;28;20041;-60
2022/04/13 09:15:47;;;;;;;12.40;9.63;;;16.90;70.20;;;;;;5026193;28;20632;-60
2022/04/13 09:18:13;;;;;;;14.98;9.98;;;16.90;70.30;;;;;;5040527;28;20063;-61
2022/04/13 09:20:39;;;;;;;13.00;10.77;;;17.00;69.90;;;;;;5049758;28;20423;-61
2022/04/13 09:23:06;;;;;;;16.85;10.45;;;17.00;69.80;;;;;;5051688;28;20033;-61
2022/04/13 09:25:33;;;;;;;14.82;9.75;;;17.10;70.00;;;;;;5027075;28;20063;-60
2022/04/13 09:28:01;;;;;;;14.43;9.68;;;17.20;69.70;;;;;;5036420;28;20029;-60
2022/04/13 09:30:28;;;;;;;14.38;10.25;;;17.30;69.00;;;;;;5040204;28;20484;-60
2022/04/13 09:32:55;;;;;;;10.98;8.05;;;17.40;68.50;;;;;;5032627;28;20139;-60
2022/04/13 09:35:21;;;;;;;11.48;8.27;;;17.40;68.70;;;;;;5051686;28;20052;-60
2022/04/13 09:37:47;;;;;;;11.73;7.05;;;17.60;68.30;;;;;;5056620;28;20638;-61
2022/04/13 09:40:41;;;;;;;11.38;6.70;;;17.70;67.40;;;;;;5032344;28;20033;-60
2022/04/13 09:43:10;;;;;;;10.75;6.10;;;17.90;66.30;;;;;;5050323;28;20039;-61
2022/04/13 09:45:40;;;;;;;7.85;5.57;;;17.90;65.40;;;;;;5024825;28;20040;-60
2022/04/13 09:48:10;;;;;;;8.18;5.72;;;18.00;65.00;;;;;;5049089;28;20052;-61
2022/04/13 09:50:40;;;;;;;6.70;4.50;;;18.10;65.00;;;;;;5039196;28;20132;-60
2022/04/13 09:53:07;;;;;;;6.47;4.30;;;18.20;64.80;;;;;;5060358;28;20029;-60
2022/04/13 09:55:53;;;;;;;8.30;4.70;;;18.30;64.30;;;;;;5051038;28;20040;-60
2022/04/13 09:58:24;;;;;;;9.40;4.90;;;18.40;64.00;;;;;;5057581;28;20032;-60
2022/04/13 10:00:53;;;;;;;5.75;4.28;;;18.40;63.50;;;;;;5062592;28;20032;-60
2022/04/13 10:03:20;;;;;;;8.20;4.60;;;18.40;63.90;;;;;;5068471;28;20867;-60
2022/04/13 10:05:51;;;;;;;6.25;4.22;;;18.30;63.60;;;;;;5051871;28;20040;-60
2022/04/13 10:08:22;;;;;;;6.32;4.22;;;18.20;63.90;;;;;;5057560;28;20154;-59
2022/04/13 10:10:56;;;;;;;7.03;3.95;;;18.20;64.20;;;;;;5061257;28;20025;-60
2022/04/13 10:13:38;;;;;;;4.88;3.88;;;18.10;64.50;;;;;;5065064;28;20036;-61
2022/04/13 10:16:07;;;;;;;5.15;3.88;;;18.10;64.80;;;;;;5042610;28;20124;-60
2022/04/13 10:18:56;;;;;;;7.60;4.38;;;17.90;64.80;;;;;;5056488;28;20034;-61
2022/04/13 10:21:47;;;;;;;8.20;5.10;;;17.80;65.10;;;;;;5046773;28;20480;-61
2022/04/13 10:24:19;;;;;;;9.25;5.88;;;17.80;65.70;;;;;;5040587;28;20399;-60
2022/04/13 10:27:10;;;;;;;8.00;5.75;;;17.70;66.20;;;;;;5044523;28;20116;-60
2022/04/13 10:29:37;;;;;;;7.18;5.53;;;17.60;66.60;;;;;;5049100;28;20025;-60
2022/04/13 10:32:11;;;;;;;8.98;5.43;;;17.60;67.30;;;;;;5040308;28;20033;-60
2022/04/13 10:34:46;;;;;;;11.23;6.30;;;17.50;67.40;;;;;;5060800;28;20029;-60
2022/04/13 10:37:14;;;;;;;9.32;6.45;;;17.50;67.50;;;;;;5022109;28;20066;-60
2022/04/13 10:39:41;;;;;;;9.07;6.00;;;17.50;67.60;;;;;;5063444;28;20421;-60
2022/04/13 10:42:08;;;;;;;8.18;6.20;;;17.50;68.00;;;;;;5049344;28;20167;-60
2022/04/13 10:44:36;;;;;;;8.85;6.07;;;17.50;67.90;;;;;;5043192;28;20542;-60
2022/04/13 10:47:07;;;;;;;10.57;5.90;;;17.50;67.70;;;;;;5047672;28;20279;-60
2022/04/13 10:49:45;;;;;;;9.82;5.80;;;17.50;67.70;;;;;;5066116;28;20152;-59
2022/04/13 10:52:23;;;;;;;9.77;5.28;;;17.40;67.20;;;;;;5042935;28;20055;-61
2022/04/13 10:54:53;;;;;;;9.25;5.00;;;17.30;67.00;;;;;;5045770;28;20032;-60
2022/04/13 10:57:21;;;;;;;7.32;4.65;;;17.30;66.80;;;;;;5023961;28;20017;-61
2022/04/13 10:59:56;;;;;;;10.40;4.15;;;17.30;66.90;;;;;;5060580;28;20035;-60
2022/04/13 11:02:48;;;;;;;6.20;4.07;;;17.30;66.80;;;;;;5019526;28;20033;-60
2022/04/13 11:05:14;;;;;;;6.47;3.97;;;17.30;66.90;;;;;;5023193;28;20045;-60
2022/04/13 11:07:41;;;;;;;5.30;3.97;;;17.20;66.90;;;;;;5035416;28;20033;-60
2022/04/13 11:10:14;;;;;;;6.00;4.20;;;17.20;66.90;;;;;;5039434;28;20012;-61
2022/04/13 11:12:40;;;;;;;7.68;4.03;;;17.30;66.80;;;;;;5070709;28;20463;-61
2022/04/13 11:15:06;;;;;;;6.68;4.20;;;17.20;66.80;;;;;;5062806;28;20071;-61
2022/04/13 11:17:40;;;;;;;7.57;4.50;;;17.20;66.80;;;;;;5050110;28;20035;-60
2022/04/13 11:20:19;;;;;;;7.15;4.75;;;17.10;66.80;;;;;;5041345;28;20383;-60
2022/04/13 11:22:45;;;;;;;7.05;4.53;;;17.20;67.20;;;;;;5052328;28;20691;-60
2022/04/13 11:25:31;;;;;;;8.82;4.97;;;17.20;67.20;;;;;;5069841;28;20067;-61
2022/04/13 11:27:57;;;;;;;7.35;4.65;;;17.20;67.10;;;;;;5069370;28;20029;-60
2022/04/13 11:30:22;;;;;;;9.02;5.25;;;17.30;67.40;;;;;;5061008;28;20533;-59
2022/04/13 11:32:49;;;;;;;12.75;6.15;;;17.30;67.90;;;;;;5025999;28;20055;-59
2022/04/13 11:35:26;;;;;;;9.13;5.97;;;17.30;67.40;;;;;;5069561;28;20083;-59
2022/04/13 11:38:10;;;;;;;10.20;6.10;;;17.30;67.60;;;;;;5033835;28;20082;-60
2022/04/13 11:40:56;;;;;;;10.40;5.85;;;17.20;67.80;;;;;;5051181;28;20372;-61
2022/04/13 11:43:22;;;;;;;11.52;6.18;;;17.20;68.00;;;;;;5053349;28;20041;-61
2022/04/13 11:45:54;;;;;;;9.23;5.43;;;17.20;67.90;;;;;;5050990;28;20041;-60
2022/04/13 11:48:46;;;;;;;6.90;5.10;;;17.20;68.00;;;;;;5054561;28;20039;-60
2022/04/13 11:51:31;;;;;;;10.80;5.70;;;17.30;68.00;;;;;;5053029;28;20108;-60
2022/04/13 11:54:12;;;;;;;8.70;5.32;;;17.20;67.90;;;;;;5020329;28;20112;-59
2022/04/13 11:56:48;;;;;;;7.82;5.07;;;17.30;67.80;;;;;;5030279;28;20095;-61
2022/04/13 11:59:37;;;;;;;6.13;4.82;;;17.30;67.80;;;;;;5039852;28;20124;-60
2022/04/13 12:02:08;;;;;;;8.98;4.80;;;17.30;67.70;;;;;;5049265;28;20098;-60
2022/04/13 12:04:34;;;;;;;8.48;4.88;;;17.20;67.60;;;;;;5032370;28;20036;-60
2022/04/13 12:07:01;;;;;;;8.48;5.03;;;17.30;67.80;;;;;;5047745;28;20064;-59
2022/04/13 12:09:28;;;;;;;9.63;6.82;;;17.20;67.70;;;;;;5044653;28;20044;-60
2022/04/13 12:11:55;;;;;;;9.50;5.45;;;17.20;67.70;;;;;;5029443;28;20040;-61
2022/04/13 12:14:36;;;;;;;9.00;5.68;;;17.30;67.90;;;;;;5030056;28;20368;-60
2022/04/13 12:17:02;;;;;;;9.43;5.43;;;17.20;68.00;;;;;;5039682;28;20082;-59
2022/04/13 12:19:42;;;;;;;8.07;5.47;;;17.20;68.10;;;;;;5041911;28;20052;-59
2022/04/13 12:22:20;;;;;;;10.20;6.30;;;17.20;68.30;;;;;;5041995;28;20037;-60
2022/04/13 12:25:06;;;;;;;9.98;5.55;;;17.20;68.50;;;;;;5041118;28;20426;-59
2022/04/13 12:27:32;;;;;;;8.32;5.50;;;17.20;68.70;;;;;;5034121;28;20060;-60
2022/04/13 12:30:17;;;;;;;8.50;5.95;;;17.20;68.70;;;;;;5042314;28;20025;-60
2022/04/13 12:32:48;;;;;;;8.50;5.40;;;17.10;68.90;;;;;;5043623;28;20057;-60
2022/04/13 12:35:15;;;;;;;8.32;5.25;;;17.10;69.00;;;;;;5030890;28;20052;-60
2022/04/13 12:37:54;;;;;;;8.68;5.15;;;17.20;69.20;;;;;;5047220;28;20024;-60
2022/04/13 12:40:21;;;;;;;8.60;5.00;;;17.20;69.30;;;;;;5047513;28;20033;-59
2022/04/13 12:42:46;;;;;;;8.32;5.38;;;17.20;69.20;;;;;;5042567;28;20040;-60
2022/04/13 12:45:12;;;;;;;9.75;5.30;;;17.20;69.30;;;;;;5042622;28;20037;-60
2022/04/13 12:47:45;;;;;;;9.30;5.80;;;17.20;69.20;;;;;;5036555;28;20029;-60